Airfield :
LOGIN :

Register | Disclaimer

   EN    FR    IT 

 










Legend :    VFR   Marginal VFR   IFR   Intensive IFR   Very Intensive IFR
Visi :
Ceiling :
>= 8 km
>= 3000ft
5 to 8 km
1000 to 3000 ft
1500m to 5 km
500 to 1000 ft
800 to 1500m
200 to 500 ft
< 800m
< 200 ft
Symbols :   Thunderstorms  Fog  Heavy snow  Heavy precipitations  Wind > 20 kt
SIGMETs :     Misc.  Thunderstorms  Icing  Turbulence  Mountain Waves  Volcanic Ashes







- Airport Elevation : 325 ft
- IATA code : POX
- Download approach charts


LFPT - Pontoise

CURRENT METAR :
  • 230000Z AUTO 26007KT 9999 FEW014 10/09 Q1021

EXPIRED METARs :
  • 222330Z AUTO 26008KT 9999 -DZ FEW010 SCT068 10/09 Q1021
  • 222300Z AUTO 26008KT 9999 -RADZ SCT021 SCT027 BKN044 10/09 Q1021
  • 222230Z AUTO 26008KT 230V290 9999 -DZ BKN017 BKN027 OVC040 10/09 Q1021
  • 222200Z AUTO 25006KT 9999 BKN017/// BKN022/// BKN035/// ///TCU 10/09 Q1021
  • 222130Z AUTO 27007KT 250V310 7000 RA BKN021/// BKN026/// BKN031/// ///TCU 10/09 Q1021

TAF N/A
ATIS : +33 1 30 30 52 08
No reported NOTAMs for that airfield.
1 SIGMET reported for the Paris FIR (LFFF) :
 
Severe turbulence
LFFF SIGMET 6 VALID 222300/230300 LFPW
LFFF PARIS FIR/UIR SEV TURB FCST E OF LINE N5045 E00315 - N4745 E00445 FL220/320 MOV E 15KT NC=



MET'MAP, your aeronautical weather chart ! - Copyright ORBIFLY December 2007 - Disclaimer

ORBIFLY MET'MAP TEAM :

Programming & Development : Alexandra Zaïnal
Concept & Development : Baudouin d'Aumeries
Co-Development & Prog : Marc-Olivier Méhu
Technical & hardware support : Manuel Goepfert

Contact : metmap@orbifly.com




SOURCES & CREDITS :

   NOAA